Time;durP1;ratioP1;P1;durP2;ratioP2;P2;SDS_P1;SDS_P2;PMS_P1;PMS_P2;Temp;Humidity;BMP_temperature;BMP_pressure;BME280_temperature;BME280_humidity;BME280_pressure;Samples;Min_cycle;Max_cycle;Signal;HPM_P1;HPM_P2
2021/07/11 00:00:19;;;;;;;8.53;4.60;;;15.00;99.90;;;;;;5013816;28;20296;-79
2021/07/11 00:02:46;;;;;;;7.03;4.47;;;15.00;99.90;;;;;;5013133;28;20280;-80
2021/07/11 00:05:16;;;;;;;10.13;4.70;;;15.00;99.90;;;;;;5013797;28;20228;-79
2021/07/11 00:07:43;;;;;;;7.00;4.47;;;15.00;99.90;;;;;;5013571;28;20235;-79
2021/07/11 00:10:13;;;;;;;7.77;4.57;;;14.90;99.90;;;;;;5013579;28;20288;-79
2021/07/11 00:12:40;;;;;;;8.60;4.80;;;14.90;99.90;;;;;;5013024;28;20205;-80
2021/07/11 00:15:12;;;;;;;7.43;4.93;;;14.90;99.90;;;;;;5013053;28;20280;-79
2021/07/11 00:17:40;;;;;;;9.63;5.23;;;14.90;99.90;;;;;;5013091;28;20205;-80
2021/07/11 00:20:09;;;;;;;5.83;4.87;;;14.90;99.90;;;;;;5012678;28;20657;-79
2021/07/11 00:22:36;;;;;;;7.27;5.10;;;15.00;99.90;;;;;;5013904;28;20308;-79
2021/07/11 00:25:03;;;;;;;5.83;4.93;;;15.00;99.90;;;;;;5013085;28;20228;-80
2021/07/11 00:27:30;;;;;;;7.23;5.17;;;14.90;99.90;;;;;;5013215;28;20284;-80
2021/07/11 00:29:58;;;;;;;7.53;5.30;;;14.90;99.90;;;;;;5013318;28;20228;-79
2021/07/11 00:32:26;;;;;;;7.37;5.00;;;15.00;99.90;;;;;;5013774;28;20855;-80
2021/07/11 00:34:53;;;;;;;8.00;4.80;;;15.00;99.90;;;;;;5013103;28;20288;-79
2021/07/11 00:37:20;;;;;;;8.83;5.37;;;15.00;99.90;;;;;;5012745;28;20228;-79
2021/07/11 00:39:47;;;;;;;6.03;4.87;;;14.90;99.90;;;;;;5013390;28;20331;-79
2021/07/11 00:42:15;;;;;;;7.70;5.10;;;14.80;99.90;;;;;;5012873;28;20284;-79
2021/07/11 00:44:42;;;;;;;10.23;4.93;;;14.80;99.90;;;;;;5018873;28;20284;-80
2021/07/11 00:47:09;;;;;;;6.47;4.83;;;14.70;99.90;;;;;;5026288;28;20771;-79
2021/07/11 00:49:42;;;;;;;10.00;5.47;;;14.60;99.90;;;;;;5032126;28;20283;-79
2021/07/11 00:52:09;;;;;;;12.77;5.20;;;14.50;99.90;;;;;;5032432;28;20507;-79
2021/07/11 00:54:36;;;;;;;9.80;5.43;;;14.50;99.90;;;;;;5032950;28;20295;-79
2021/07/11 00:57:03;;;;;;;7.43;5.00;;;14.40;99.90;;;;;;5032407;28;20291;-79
2021/07/11 00:59:31;;;;;;;11.07;5.57;;;14.30;99.90;;;;;;5044361;28;20307;-79
2021/07/11 01:02:07;;;;;;;7.87;5.40;;;14.30;99.90;;;;;;5032661;28;20235;-79
2021/07/11 01:04:47;;;;;;;9.07;5.77;;;14.20;99.90;;;;;;5035496;28;20287;-79
2021/07/11 01:07:18;;;;;;;12.67;5.67;;;14.30;99.90;;;;;;5039054;28;20227;-79
2021/07/11 01:09:48;;;;;;;9.07;6.47;;;14.20;99.90;;;;;;5041859;28;20197;-80
2021/07/11 01:12:21;;;;;;;7.67;5.30;;;14.20;99.90;;;;;;5043758;28;20199;-80
2021/07/11 01:14:51;;;;;;;7.83;5.13;;;14.10;99.90;;;;;;5045555;28;20236;-79
2021/07/11 01:17:22;;;;;;;7.77;5.23;;;14.10;99.90;;;;;;5032788;28;20200;-79
2021/07/11 01:20:03;;;;;;;7.70;5.20;;;14.00;99.90;;;;;;5035516;28;20267;-80
2021/07/11 01:22:36;;;;;;;9.07;5.10;;;13.90;99.90;;;;;;5032273;28;20311;-79
2021/07/11 01:25:08;;;;;;;6.23;5.00;;;13.90;99.90;;;;;;5032510;28;20283;-79
2021/07/11 01:27:38;;;;;;;7.60;5.00;;;13.80;99.90;;;;;;5031957;28;20299;-80
2021/07/11 01:30:06;;;;;;;9.87;5.57;;;13.80;99.90;;;;;;5032634;28;20224;-80
2021/07/11 01:32:35;;;;;;;7.70;5.37;;;13.70;99.90;;;;;;5031133;28;20236;-78
2021/07/11 01:35:04;;;;;;;6.57;5.40;;;13.60;99.90;;;;;;5032926;28;20207;-79
2021/07/11 01:37:34;;;;;;;6.83;5.10;;;13.50;99.90;;;;;;5032331;28;20255;-79
2021/07/11 01:40:01;;;;;;;6.70;5.07;;;13.40;99.90;;;;;;5031192;28;20256;-79
2021/07/11 01:42:29;;;;;;;7.23;5.37;;;13.40;99.90;;;;;;5033307;28;20232;-79
2021/07/11 01:44:58;;;;;;;12.73;5.80;;;13.50;99.90;;;;;;5050461;28;20196;-79
2021/07/11 01:47:26;;;;;;;6.20;5.60;;;13.50;99.90;;;;;;5031749;28;20314;-79
2021/07/11 01:49:54;;;;;;;8.20;5.77;;;13.50;99.90;;;;;;5042509;28;20279;-79
2021/07/11 01:52:21;;;;;;;9.33;5.80;;;13.50;99.90;;;;;;5041234;28;20283;-79
2021/07/11 01:54:48;;;;;;;7.57;5.57;;;13.60;99.90;;;;;;5033588;28;20283;-79
2021/07/11 01:57:15;;;;;;;7.50;5.37;;;13.80;99.90;;;;;;5036386;28;20279;-79
2021/07/11 01:59:42;;;;;;;9.23;5.87;;;13.90;99.90;;;;;;5030513;28;20311;-79
2021/07/11 02:02:10;;;;;;;9.67;5.67;;;14.10;99.90;;;;;;5033487;28;20286;-79
2021/07/11 02:04:37;;;;;;;8.33;6.00;;;14.10;99.90;;;;;;5051568;28;20650;-79
2021/07/11 02:07:04;;;;;;;7.37;5.60;;;14.20;99.90;;;;;;5041156;28;20611;-79
2021/07/11 02:09:31;;;;;;;10.37;5.77;;;14.20;99.90;;;;;;5037630;28;20280;-79
2021/07/11 02:11:59;;;;;;;9.47;5.90;;;14.30;99.90;;;;;;5042574;28;20721;-79
2021/07/11 02:14:31;;;;;;;9.10;5.90;;;14.30;99.90;;;;;;5051899;28;20239;-79
2021/07/11 02:17:02;;;;;;;7.63;6.10;;;14.30;99.90;;;;;;5047217;28;20294;-79
2021/07/11 02:19:35;;;;;;;8.70;6.10;;;14.30;99.90;;;;;;5051546;28;20722;-79
2021/07/11 02:22:02;;;;;;;6.70;6.03;;;14.30;99.90;;;;;;5036367;28;20224;-80
2021/07/11 02:24:30;;;;;;;15.10;6.10;;;14.40;99.90;;;;;;5043857;28;20284;-80
2021/07/11 02:26:57;;;;;;;20.73;6.17;;;14.40;99.90;;;;;;5032633;28;20292;-79
2021/07/11 02:29:27;;;;;;;25.07;7.07;;;14.30;99.90;;;;;;5037771;28;20275;-79
2021/07/11 02:31:54;;;;;;;23.50;7.17;;;14.20;99.90;;;;;;5046628;28;20203;-79
2021/07/11 02:34:21;;;;;;;19.17;6.73;;;14.30;99.90;;;;;;5039626;28;20229;-79
2021/07/11 02:36:52;;;;;;;19.70;6.03;;;14.30;99.90;;;;;;5035644;28;20283;-79
2021/07/11 02:39:21;;;;;;;18.20;6.07;;;14.30;99.90;;;;;;5051458;28;20314;-79
2021/07/11 02:41:52;;;;;;;28.03;6.30;;;14.30;99.90;;;;;;5035723;28;20273;-79
2021/07/11 02:44:20;;;;;;;13.97;6.50;;;14.40;99.90;;;;;;5043121;28;20920;-79
2021/07/11 02:46:52;;;;;;;14.70;6.50;;;14.40;99.90;;;;;;5034956;28;20328;-79
2021/07/11 02:49:24;;;;;;;11.47;6.87;;;14.50;99.90;;;;;;5038567;28;20708;-80
2021/07/11 02:51:55;;;;;;;10.73;6.03;;;14.50;99.90;;;;;;5039669;28;20232;-79
2021/07/11 02:54:25;;;;;;;10.37;5.87;;;14.60;99.90;;;;;;5046316;28;20631;-80
2021/07/11 02:56:57;;;;;;;11.50;6.40;;;14.60;99.90;;;;;;5052981;28;20283;-79
2021/07/11 02:59:25;;;;;;;17.77;6.87;;;14.70;99.90;;;;;;5038136;28;20252;-79
2021/07/11 03:01:53;;;;;;;9.30;6.07;;;14.60;99.90;;;;;;5035137;28;20287;-79
2021/07/11 03:04:21;;;;;;;8.50;6.30;;;14.60;99.90;;;;;;5047046;28;20250;-80
2021/07/11 03:06:48;;;;;;;11.30;6.17;;;14.60;99.90;;;;;;5034475;28;20702;-79
2021/07/11 03:09:16;;;;;;;12.07;6.57;;;14.60;99.90;;;;;;5043116;28;20247;-79
2021/07/11 03:11:45;;;;;;;10.03;6.30;;;14.70;99.90;;;;;;5039287;28;20284;-80
2021/07/11 03:14:12;;;;;;;9.97;6.33;;;14.70;99.90;;;;;;5044280;28;20218;-80
2021/07/11 03:16:41;;;;;;;11.37;6.40;;;14.70;99.90;;;;;;5042046;28;20291;-79
2021/07/11 03:19:08;;;;;;;11.60;6.53;;;14.70;99.90;;;;;;5034286;28;20592;-79
2021/07/11 03:21:36;;;;;;;8.03;5.77;;;14.70;99.90;;;;;;5037232;28;20326;-80
2021/07/11 03:24:04;;;;;;;12.40;6.47;;;14.70;99.90;;;;;;5049722;28;20316;-79
2021/07/11 03:26:34;;;;;;;15.90;6.37;;;14.70;99.90;;;;;;5034486;28;20283;-79
2021/07/11 03:29:06;;;;;;;8.13;6.10;;;14.70;99.90;;;;;;5034625;28;20228;-79
2021/07/11 03:31:34;;;;;;;9.60;6.40;;;14.70;99.90;;;;;;5041337;28;20196;-80
2021/07/11 03:34:01;;;;;;;21.47;6.50;;;14.70;99.90;;;;;;5040239;28;20312;-79
2021/07/11 03:36:32;;;;;;;21.03;7.90;;;14.60;99.90;;;;;;5054140;28;20279;-79
2021/07/11 03:39:05;;;;;;;13.43;6.07;;;14.60;99.90;;;;;;5047757;28;20247;-79
2021/07/11 03:41:40;;;;;;;16.37;6.53;;;14.60;99.90;;;;;;5052406;28;20299;-80
2021/07/11 03:44:11;;;;;;;21.60;7.00;;;14.50;99.90;;;;;;5052099;28;20294;-79
2021/07/11 03:46:40;;;;;;;18.87;7.17;;;14.50;99.90;;;;;;5042092;28;20244;-79
2021/07/11 03:49:11;;;;;;;24.17;7.10;;;14.50;99.90;;;;;;5034248;28;20232;-79
2021/07/11 03:51:40;;;;;;;27.10;7.83;;;14.50;99.90;;;;;;5036677;28;20200;-79
2021/07/11 03:54:09;;;;;;;18.53;7.17;;;14.60;99.90;;;;;;5052102;28;20306;-80
2021/07/11 03:56:38;;;;;;;19.70;7.07;;;14.60;99.90;;;;;;5033996;28;20287;-79
2021/07/11 03:59:09;;;;;;;23.53;7.23;;;14.60;99.90;;;;;;5033558;28;20307;-80
2021/07/11 04:01:38;;;;;;;19.93;7.07;;;14.60;99.90;;;;;;5051788;28;20286;-80
2021/07/11 04:04:16;;;;;;;21.23;7.30;;;14.60;99.90;;;;;;5037700;28;20279;-79
2021/07/11 04:06:47;;;;;;;19.83;6.07;;;14.60;99.90;;;;;;5036995;28;20618;-79
2021/07/11 04:09:18;;;;;;;22.87;7.63;;;14.60;99.90;;;;;;5045051;28;20287;-79
2021/07/11 04:11:47;;;;;;;26.63;7.47;;;14.60;99.90;;;;;;5051020;28;20210;-79
2021/07/11 04:14:16;;;;;;;18.50;6.63;;;14.60;99.90;;;;;;5043427;28;20287;-80
2021/07/11 04:16:45;;;;;;;17.67;7.50;;;14.60;99.90;;;;;;5047886;28;20188;-80
2021/07/11 04:19:14;;;;;;;20.43;7.07;;;14.60;99.90;;;;;;5033464;28;20259;-79
2021/07/11 04:21:42;;;;;;;22.57;7.90;;;14.60;99.90;;;;;;5033298;28;20676;-80
2021/07/11 04:24:10;;;;;;;21.83;7.70;;;14.70;99.90;;;;;;5033296;28;20292;-80
2021/07/11 04:26:38;;;;;;;19.07;7.53;;;14.70;99.90;;;;;;5038101;28;20311;-79
2021/07/11 04:29:07;;;;;;;18.03;7.40;;;14.70;99.90;;;;;;5033439;28;20627;-79
2021/07/11 04:31:33;;;;;;;17.97;7.37;;;14.70;99.90;;;;;;5033575;28;20602;-80
2021/07/11 04:34:14;;;;;;;12.67;7.00;;;14.70;99.90;;;;;;5050722;28;20279;-80
2021/07/11 04:36:41;;;;;;;12.73;6.83;;;14.70;99.90;;;;;;5045379;28;20203;-79
2021/07/11 04:39:09;;;;;;;13.60;6.83;;;14.70;99.90;;;;;;5038949;28;20244;-79
2021/07/11 04:41:38;;;;;;;18.00;6.50;;;14.70;99.90;;;;;;5037214;28;20286;-79
2021/07/11 04:44:06;;;;;;;18.47;6.80;;;14.70;99.90;;;;;;5052799;28;20243;-80
2021/07/11 04:46:33;;;;;;;22.00;7.40;;;14.70;99.90;;;;;;5051991;28;20263;-79
2021/07/11 04:49:01;;;;;;;17.10;6.87;;;14.70;99.90;;;;;;5032801;28;20287;-79
2021/07/11 04:51:28;;;;;;;17.50;7.07;;;14.70;99.90;;;;;;5035485;28;20236;-79
2021/07/11 04:53:55;;;;;;;24.83;7.50;;;14.60;99.90;;;;;;5032106;28;20292;-80
2021/07/11 04:56:22;;;;;;;15.13;6.77;;;14.60;99.90;;;;;;5046812;28;20338;-80
2021/07/11 04:58:49;;;;;;;17.37;7.00;;;14.50;99.90;;;;;;5045516;28;20787;-79
2021/07/11 05:01:17;;;;;;;18.77;6.67;;;14.40;99.90;;;;;;5042475;28;20230;-79
2021/07/11 05:03:44;;;;;;;16.83;6.93;;;14.40;99.90;;;;;;5032617;28;20291;-80
2021/07/11 05:06:13;;;;;;;17.27;7.53;;;14.30;99.90;;;;;;5032932;28;20635;-80
2021/07/11 05:08:40;;;;;;;15.00;7.00;;;14.40;99.90;;;;;;5033150;28;20315;-79
2021/07/11 05:11:08;;;;;;;22.20;6.97;;;14.40;99.90;;;;;;5032439;28;20729;-80
2021/07/11 05:13:35;;;;;;;14.80;6.90;;;14.40;99.90;;;;;;5040209;28;20192;-79
2021/07/11 05:16:02;;;;;;;15.67;6.57;;;14.50;99.90;;;;;;5033331;28;20228;-80
2021/07/11 05:18:30;;;;;;;17.03;7.00;;;14.50;99.90;;;;;;5041963;28;20284;-79
2021/07/11 05:20:57;;;;;;;16.93;7.17;;;14.60;99.90;;;;;;5038650;28;20235;-79
2021/07/11 05:23:24;;;;;;;13.83;7.07;;;14.60;99.90;;;;;;5049542;28;20288;-79
2021/07/11 05:25:52;;;;;;;11.00;7.33;;;14.70;99.90;;;;;;5051808;28;20285;-80
2021/07/11 05:28:19;;;;;;;15.40;7.77;;;14.80;99.90;;;;;;5032634;28;20288;-79
2021/07/11 05:30:46;;;;;;;13.97;7.43;;;14.90;99.90;;;;;;5039841;28;20548;-79
2021/07/11 05:33:13;;;;;;;12.73;7.43;;;15.10;99.90;;;;;;5051835;28;20238;-78
2021/07/11 05:35:41;;;;;;;14.17;7.70;;;15.20;99.90;;;;;;5051316;28;20641;-79
2021/07/11 05:38:08;;;;;;;17.07;8.47;;;15.30;99.90;;;;;;5048163;28;20707;-80
2021/07/11 05:40:35;;;;;;;16.63;8.47;;;15.30;99.90;;;;;;5046941;28;20258;-79
2021/07/11 05:43:02;;;;;;;15.43;8.00;;;15.60;99.90;;;;;;5044734;28;20288;-79
2021/07/11 05:45:29;;;;;;;12.37;8.53;;;15.60;99.90;;;;;;5038609;28;20269;-79
2021/07/11 05:47:56;;;;;;;10.73;8.23;;;15.80;99.90;;;;;;5032038;28;20366;-79
2021/07/11 05:50:23;;;;;;;13.47;8.27;;;15.80;99.90;;;;;;5039389;28;20270;-80
2021/07/11 05:52:52;;;;;;;13.07;8.30;;;15.90;99.90;;;;;;5036376;28;20626;-80
2021/07/11 05:55:19;;;;;;;14.67;7.93;;;16.00;99.90;;;;;;5040813;28;20706;-80
2021/07/11 05:57:46;;;;;;;9.50;7.63;;;16.00;99.90;;;;;;5033730;28;20246;-79
2021/07/11 06:00:13;;;;;;;10.63;8.20;;;15.80;99.90;;;;;;5033042;28;20279;-79
2021/07/11 06:02:41;;;;;;;10.53;7.93;;;15.90;99.90;;;;;;5036719;28;20294;-79
2021/07/11 06:05:08;;;;;;;13.63;7.70;;;15.80;99.90;;;;;;5036223;28;20197;-79
2021/07/11 06:07:35;;;;;;;13.37;7.60;;;15.90;99.90;;;;;;5038068;28;20687;-79
2021/07/11 06:10:05;;;;;;;11.73;6.27;;;16.00;99.90;;;;;;5032144;28;20279;-79
2021/07/11 06:12:32;;;;;;;9.83;6.27;;;15.90;99.90;;;;;;5050719;28;20290;-79
2021/07/11 06:14:59;;;;;;;7.10;5.83;;;16.00;99.90;;;;;;5037203;28;20262;-79
2021/07/11 06:17:26;;;;;;;9.60;5.60;;;15.90;99.90;;;;;;5038014;28;20278;-79
2021/07/11 06:19:53;;;;;;;6.97;5.17;;;15.90;99.90;;;;;;5031786;28;20568;-79
2021/07/11 06:22:20;;;;;;;9.60;4.97;;;15.90;99.90;;;;;;5040105;28;20302;-79
2021/07/11 06:24:47;;;;;;;7.47;4.90;;;15.90;99.90;;;;;;5050360;28;20238;-79
2021/07/11 06:27:15;;;;;;;7.77;4.50;;;15.90;99.90;;;;;;5031463;28;20283;-79
2021/07/11 06:29:42;;;;;;;6.37;4.60;;;15.90;99.90;;;;;;5045703;28;20250;-79
2021/07/11 06:32:09;;;;;;;5.50;4.10;;;15.90;99.90;;;;;;5031802;28;20299;-79
2021/07/11 06:34:36;;;;;;;6.70;4.10;;;16.00;99.90;;;;;;5031313;28;20284;-79
2021/07/11 06:37:03;;;;;;;6.70;4.40;;;16.00;99.90;;;;;;5036398;28;20242;-80
2021/07/11 06:39:30;;;;;;;6.50;4.30;;;16.00;99.90;;;;;;5044419;28;20231;-79
2021/07/11 06:41:57;;;;;;;5.23;3.90;;;16.00;99.90;;;;;;5037099;28;20284;-79
2021/07/11 06:44:25;;;;;;;6.60;4.03;;;15.90;99.90;;;;;;5043751;28;20223;-79
2021/07/11 06:46:52;;;;;;;5.37;3.83;;;15.90;99.90;;;;;;5048084;28;20271;-79
2021/07/11 06:49:19;;;;;;;5.57;3.70;;;16.00;99.90;;;;;;5049755;28;20648;-79
2021/07/11 06:51:46;;;;;;;5.40;4.30;;;16.10;99.90;;;;;;5046717;28;20706;-79
2021/07/11 06:54:13;;;;;;;5.20;4.00;;;16.00;99.90;;;;;;5049122;28;20894;-79
2021/07/11 06:56:39;;;;;;;7.10;4.80;;;16.10;99.90;;;;;;5033066;28;20751;-78
2021/07/11 06:59:06;;;;;;;6.03;4.50;;;16.00;99.90;;;;;;5030820;28;20560;-79
2021/07/11 07:01:35;;;;;;;5.00;4.50;;;16.00;99.90;;;;;;5049487;28;20310;-80
2021/07/11 07:04:01;;;;;;;8.00;4.70;;;16.00;99.90;;;;;;5050499;28;20287;-79
2021/07/11 07:06:28;;;;;;;8.57;4.83;;;16.10;99.90;;;;;;5050937;28;20291;-79
2021/07/11 07:08:55;;;;;;;6.87;4.90;;;16.00;99.90;;;;;;5050934;28;20751;-80
2021/07/11 07:11:22;;;;;;;4.90;4.37;;;16.10;99.90;;;;;;5051232;28;20694;-79
2021/07/11 07:13:49;;;;;;;6.37;4.50;;;16.20;99.90;;;;;;5050580;28;20239;-79
2021/07/11 07:16:16;;;;;;;7.30;4.50;;;16.30;99.90;;;;;;5042470;28;20240;-79
2021/07/11 07:18:44;;;;;;;5.57;4.20;;;16.50;99.90;;;;;;5050935;28;20231;-79
2021/07/11 07:21:11;;;;;;;6.13;4.40;;;16.50;99.90;;;;;;5051750;28;20262;-79
2021/07/11 07:23:38;;;;;;;5.73;4.33;;;16.50;99.90;;;;;;5034638;28;20279;-79
2021/07/11 07:26:05;;;;;;;6.50;4.13;;;16.60;99.90;;;;;;5043407;28;20255;-79
2021/07/11 07:28:32;;;;;;;5.57;3.87;;;16.60;99.90;;;;;;5046904;28;20286;-79
2021/07/11 07:30:59;;;;;;;5.53;4.40;;;16.50;99.90;;;;;;5054594;28;20279;-79
2021/07/11 07:33:26;;;;;;;5.90;4.57;;;16.40;99.90;;;;;;5045802;28;20622;-79
2021/07/11 07:35:54;;;;;;;4.50;4.07;;;16.40;99.90;;;;;;5034175;28;20262;-79
2021/07/11 07:38:21;;;;;;;4.83;4.30;;;16.50;99.90;;;;;;5034395;28;20291;-79
2021/07/11 07:40:48;;;;;;;4.40;4.00;;;16.50;99.90;;;;;;5034189;28;20810;-79
2021/07/11 07:43:15;;;;;;;4.30;3.87;;;16.50;99.90;;;;;;5048719;28;20231;-78
2021/07/11 07:45:42;;;;;;;5.23;4.00;;;16.60;99.90;;;;;;5053409;28;20294;-79
2021/07/11 07:48:09;;;;;;;5.33;4.50;;;16.60;99.90;;;;;;5045703;28;20254;-77
2021/07/11 07:50:37;;;;;;;4.40;4.00;;;16.50;99.90;;;;;;5053281;28;20298;-78
2021/07/11 07:53:06;;;;;;;5.47;4.70;;;16.60;99.90;;;;;;5044754;28;20208;-76
2021/07/11 07:55:33;;;;;;;4.93;4.43;;;16.60;99.90;;;;;;5034275;28;20291;-78
2021/07/11 07:58:02;;;;;;;5.93;4.27;;;16.60;99.90;;;;;;5033202;28;20299;-78
2021/07/11 08:00:29;;;;;;;5.30;4.80;;;16.60;99.90;;;;;;5033077;28;20575;-78
2021/07/11 08:02:56;;;;;;;6.13;4.73;;;16.80;99.90;;;;;;5033427;28;20269;-78
2021/07/11 08:05:23;;;;;;;6.73;4.47;;;16.90;99.90;;;;;;5037334;28;20287;-78
2021/07/11 08:07:50;;;;;;;5.00;4.50;;;16.90;99.90;;;;;;5039089;28;20224;-77
2021/07/11 08:10:18;;;;;;;7.57;5.03;;;17.00;99.90;;;;;;5033476;28;20296;-78
2021/07/11 08:12:46;;;;;;;7.20;4.77;;;17.00;99.90;;;;;;5033036;28;20287;-78
2021/07/11 08:15:16;;;;;;;5.80;4.87;;;17.00;99.90;;;;;;5033432;28;20283;-78
2021/07/11 08:17:44;;;;;;;9.13;4.97;;;17.00;99.90;;;;;;5033528;28;20557;-78
2021/07/11 08:20:13;;;;;;;6.67;5.20;;;16.90;99.90;;;;;;5033118;28;20243;-78
2021/07/11 08:22:40;;;;;;;7.00;5.30;;;16.70;99.90;;;;;;5033200;28;20295;-78
2021/07/11 08:25:09;;;;;;;7.13;6.07;;;16.60;99.90;;;;;;5033151;28;20723;-78
2021/07/11 08:27:38;;;;;;;7.83;6.33;;;16.60;99.90;;;;;;5033421;28;20287;-78
2021/07/11 08:30:07;;;;;;;7.20;6.20;;;16.50;99.90;;;;;;5045027;28;20291;-78
2021/07/11 08:32:34;;;;;;;9.10;6.50;;;16.50;99.90;;;;;;5053187;28;20623;-78
2021/07/11 08:35:02;;;;;;;8.80;6.17;;;16.70;99.90;;;;;;5053344;28;20231;-78
2021/07/11 08:37:29;;;;;;;9.33;6.37;;;17.00;99.90;;;;;;5053217;28;20243;-78
2021/07/11 08:39:57;;;;;;;8.63;6.67;;;17.00;99.90;;;;;;5052420;28;20200;-78
2021/07/11 08:42:24;;;;;;;8.00;6.60;;;16.80;99.90;;;;;;5052614;28;20285;-78
2021/07/11 08:44:53;;;;;;;9.97;6.53;;;16.90;99.90;;;;;;5052306;28;20295;-78
2021/07/11 08:47:21;;;;;;;7.60;6.10;;;17.10;99.90;;;;;;5052761;28;20278;-78
2021/07/11 08:49:49;;;;;;;7.03;5.17;;;17.30;99.90;;;;;;5052709;28;20290;-78
2021/07/11 08:52:16;;;;;;;5.53;4.90;;;17.70;99.90;;;;;;5052552;28;20242;-78
2021/07/11 08:54:43;;;;;;;6.25;4.70;;;18.40;99.90;;;;;;5032585;28;20283;-78
2021/07/11 08:57:12;;;;;;;6.22;5.00;;;19.40;99.90;;;;;;5033066;28;20299;-78
2021/07/11 08:59:40;;;;;;;5.60;4.75;;;19.50;99.90;;;;;;5039605;28;20232;-79
2021/07/11 09:02:09;;;;;;;6.00;4.43;;;19.30;99.90;;;;;;5036422;28;20307;-79
2021/07/11 09:04:40;;;;;;;5.88;4.15;;;20.00;99.90;;;;;;5049558;28;20227;-79
2021/07/11 09:07:07;;;;;;;6.22;4.45;;;20.20;99.90;;;;;;5044896;28;20283;-79
2021/07/11 09:09:36;;;;;;;6.25;4.20;;;20.40;99.90;;;;;;5052030;28;20750;-79
2021/07/11 09:12:06;;;;;;;5.13;3.80;;;20.30;99.90;;;;;;5052668;28;20547;-79
2021/07/11 09:14:37;;;;;;;6.45;4.45;;;20.60;99.90;;;;;;5052376;28;20563;-79
2021/07/11 09:17:07;;;;;;;6.68;4.10;;;20.20;99.90;;;;;;5052465;28;20246;-79
2021/07/11 09:19:38;;;;;;;5.32;4.18;;;20.10;99.90;;;;;;5052253;28;20286;-80
2021/07/11 09:22:07;;;;;;;7.97;3.50;;;21.00;99.90;;;;;;5052077;28;20821;-79
2021/07/11 09:24:35;;;;;;;4.90;4.00;;;21.40;99.90;;;;;;5051701;28;20675;-79
2021/07/11 09:27:11;;;;;;;4.95;3.80;;;20.60;99.90;;;;;;5052234;28;20656;-79
2021/07/11 09:29:39;;;;;;;5.72;3.83;;;20.40;99.90;;;;;;5051865;28;20278;-79
2021/07/11 09:32:07;;;;;;;4.75;3.72;;;19.70;99.90;;;;;;5052249;28;20286;-79
2021/07/11 09:34:40;;;;;;;6.32;4.05;;;19.50;99.90;;;;;;5052016;28;20648;-79
2021/07/11 09:37:10;;;;;;;4.47;3.65;;;19.10;99.90;;;;;;5051728;28;20635;-79
2021/07/11 09:39:45;;;;;;;6.35;4.28;;;18.90;99.90;;;;;;5042149;28;20702;-79
2021/07/11 09:42:27;;;;;;;5.95;4.47;;;18.60;99.90;;;;;;5051195;28;20584;-79
2021/07/11 09:44:55;;;;;;;5.90;3.67;;;18.80;99.90;;;;;;5052048;28;20235;-79
2021/07/11 09:47:25;;;;;;;4.28;3.88;;;19.20;99.90;;;;;;5050075;28;20733;-79
2021/07/11 09:50:01;;;;;;;6.28;3.60;;;19.80;99.90;;;;;;5031926;28;20235;-79
2021/07/11 09:52:32;;;;;;;5.75;3.38;;;19.60;99.90;;;;;;5031370;28;20634;-79
2021/07/11 09:55:00;;;;;;;7.05;3.65;;;20.10;99.90;;;;;;5031481;28;20200;-79
2021/07/11 09:57:32;;;;;;;3.88;3.38;;;20.20;99.90;;;;;;5031707;28;20291;-79
2021/07/11 10:00:19;;;;;;;4.32;3.00;;;21.10;99.90;;;;;;5030538;28;20287;-79
2021/07/11 10:02:47;;;;;;;8.43;4.57;;;22.50;99.90;;;;;;5031966;28;20321;-79
2021/07/11 10:05:17;;;;;;;74.00;54.20;;;22.30;99.90;;;;;;5031989;28;20283;-79
2021/07/11 10:07:45;;;;;;;5.50;4.65;;;21.20;99.90;;;;;;5040311;28;20196;-79
2021/07/11 10:10:13;;;;;;;6.10;3.47;;;21.10;99.90;;;;;;5033605;28;20247;-79
2021/07/11 10:12:41;;;;;;;5.30;3.35;;;21.20;99.90;;;;;;5032200;28;20277;-79
2021/07/11 10:15:12;;;;;;;4.18;3.08;;;21.40;99.90;;;;;;5043975;28;20224;-79
2021/07/11 10:17:44;;;;;;;4.20;3.20;;;22.00;99.90;;;;;;5032091;28;20266;-79
2021/07/11 10:20:13;;;;;;;5.85;3.28;;;22.20;99.90;;;;;;5031886;28;20200;-79
2021/07/11 10:22:47;;;;;;;5.43;3.65;;;21.70;99.90;;;;;;5030877;28;20224;-79
2021/07/11 10:25:16;;;;;;;6.07;3.30;;;22.00;99.90;;;;;;5041583;28;20263;-79
2021/07/11 10:27:44;;;;;;;4.05;3.00;;;21.70;99.90;;;;;;5051375;28;20287;-79
2021/07/11 10:30:12;;;;;;;3.17;2.63;;;21.70;99.90;;;;;;5044091;28;20242;-79
2021/07/11 10:32:39;;;;;;;5.18;2.72;;;23.00;99.90;;;;;;5031775;28;20193;-79
2021/07/11 10:35:16;;;;;;;4.03;3.20;;;24.00;99.90;;;;;;5043480;28;20283;-79
2021/07/11 10:37:51;;;;;;;3.70;2.83;;;24.40;99.90;;;;;;5033943;28;20204;-79
2021/07/11 10:40:21;;;;;;;4.25;2.97;;;22.40;99.90;;;;;;5031890;28;20210;-79
2021/07/11 10:42:49;;;;;;;3.63;2.97;;;23.00;99.90;;;;;;5040644;28;20749;-79
2021/07/11 10:45:18;;;;;;;4.38;2.70;;;22.20;99.90;;;;;;5038395;28;20212;-79
2021/07/11 10:47:46;;;;;;;3.55;2.78;;;21.70;99.90;;;;;;5030733;28;20307;-79
2021/07/11 10:50:28;;;;;;;3.75;2.80;;;21.60;99.90;;;;;;5038758;28;20284;-79
2021/07/11 10:52:57;;;;;;;4.80;2.75;;;20.90;99.90;;;;;;5033820;28;20278;-79
2021/07/11 10:55:25;;;;;;;4.28;3.28;;;21.20;99.90;;;;;;5035526;28;20898;-79
2021/07/11 10:57:52;;;;;;;4.93;2.95;;;21.70;99.90;;;;;;5054286;28;20249;-79
2021/07/11 11:00:21;;;;;;;2.95;2.70;;;21.90;99.90;;;;;;5053792;28;20647;-79
2021/07/11 11:02:50;;;;;;;6.88;4.60;;;21.50;99.90;;;;;;5054793;28;20710;-79
2021/07/11 11:05:23;;;;;;;6.88;3.80;;;21.50;99.90;;;;;;5047801;28;20641;-79
2021/07/11 11:07:53;;;;;;;5.30;3.10;;;21.20;99.90;;;;;;5035102;28;20200;-79
2021/07/11 11:10:31;;;;;;;3.63;3.00;;;21.10;99.90;;;;;;5034854;28;20203;-79
2021/07/11 11:13:07;;;;;;;5.25;2.70;;;20.60;99.90;;;;;;5033650;28;20232;-79
2021/07/11 11:15:43;;;;;;;3.60;3.20;;;20.50;99.90;;;;;;5034620;28;20196;-79
2021/07/11 11:18:15;;;;;;;6.28;3.45;;;20.40;99.90;;;;;;5034555;28;20287;-79
2021/07/11 11:20:42;;;;;;;4.88;3.20;;;20.40;99.90;;;;;;5033834;28;20279;-79
2021/07/11 11:23:11;;;;;;;4.90;3.90;;;20.30;99.90;;;;;;5033422;28;20782;-79
2021/07/11 11:25:44;;;;;;;3.75;3.00;;;20.50;99.90;;;;;;5034666;28;20254;-79
2021/07/11 11:28:11;;;;;;;4.53;2.97;;;20.50;99.90;;;;;;5037168;28;20206;-79
2021/07/11 11:30:39;;;;;;;3.50;3.20;;;20.50;99.90;;;;;;5054012;28;20382;-79
2021/07/11 11:33:06;;;;;;;3.08;2.72;;;20.90;99.90;;;;;;5053805;28;20192;-79
2021/07/11 11:35:36;;;;;;;3.58;2.70;;;21.50;99.90;;;;;;5053951;28;20286;-80
2021/07/11 11:38:05;;;;;;;5.30;2.60;;;21.20;99.90;;;;;;5053927;28;20235;-79
2021/07/11 11:40:33;;;;;;;5.22;2.70;;;20.80;99.90;;;;;;5050004;28;20232;-79
2021/07/11 11:43:03;;;;;;;4.38;2.78;;;20.80;99.90;;;;;;5033934;28;20319;-79
2021/07/11 11:45:32;;;;;;;4.47;2.53;;;20.50;99.90;;;;;;5048755;28;20687;-79
2021/07/11 11:48:02;;;;;;;2.92;2.63;;;20.40;99.90;;;;;;5014262;28;20292;-79
2021/07/11 11:50:29;;;;;;;3.75;2.90;;;20.80;99.90;;;;;;5014045;28;20708;-79
2021/07/11 11:53:11;;;;;;;5.40;2.95;;;21.10;99.90;;;;;;5014329;28;20292;-79
2021/07/11 11:55:40;;;;;;;4.25;2.80;;;21.40;99.90;;;;;;5000931;28;20233;-79
2021/07/11 11:58:09;;;;;;;4.55;2.63;;;21.40;99.90;;;;;;5007045;28;20288;-79
2021/07/11 12:00:37;;;;;;;4.32;2.70;;;22.30;99.90;;;;;;5012919;28;20627;-79
2021/07/11 12:03:06;;;;;;;5.00;2.53;;;22.00;99.90;;;;;;5013159;28;20275;-79
2021/07/11 12:05:34;;;;;;;3.42;2.45;;;21.80;99.90;;;;;;5013502;28;20287;-79
2021/07/11 12:08:02;;;;;;;2.97;2.60;;;21.40;99.90;;;;;;5013914;28;20289;-79
2021/07/11 12:10:30;;;;;;;5.40;2.78;;;21.30;99.90;;;;;;5012077;28;20233;-79
2021/07/11 12:12:59;;;;;;;2.78;2.58;;;21.50;99.90;;;;;;4994402;28;20233;-80
2021/07/11 12:15:43;;;;;;;3.13;2.35;;;21.30;99.90;;;;;;4998365;28;20233;-79
2021/07/11 12:18:11;;;;;;;2.53;2.33;;;21.20;99.90;;;;;;5013556;28;20207;-79
2021/07/11 12:20:39;;;;;;;3.10;2.50;;;21.10;99.90;;;;;;5013248;28;20204;-79
2021/07/11 12:23:10;;;;;;;3.95;2.40;;;21.00;99.90;;;;;;5013353;28;20780;-79
2021/07/11 12:25:40;;;;;;;3.25;2.47;;;21.10;99.90;;;;;;5012908;28;20959;-79
2021/07/11 12:28:08;;;;;;;4.88;2.42;;;21.00;99.90;;;;;;5013543;28;20205;-79
2021/07/11 12:30:42;;;;;;;13.15;10.30;;;21.20;99.90;;;;;;5013780;28;20599;-79
2021/07/11 12:33:10;;;;;;;3.50;2.67;;;20.80;99.90;;;;;;5013229;28;20224;-79
2021/07/11 12:35:46;;;;;;;8.13;7.32;;;20.60;99.90;;;;;;5012369;28;20656;-79
2021/07/11 12:38:14;;;;;;;3.25;2.85;;;21.40;99.90;;;;;;5013543;28;20635;-80
2021/07/11 12:40:43;;;;;;;2.97;1.95;;;22.00;99.90;;;;;;5000542;28;20268;-79
2021/07/11 12:43:17;;;;;;;2.67;2.15;;;21.50;99.90;;;;;;4995658;28;20312;-79
2021/07/11 12:45:58;;;;;;;2.65;1.95;;;22.30;99.90;;;;;;5014695;28;20216;-79
2021/07/11 12:48:38;;;;;;;3.50;2.20;;;22.60;99.90;;;;;;5031484;28;20203;-80
2021/07/11 12:51:21;;;;;;;2.97;2.10;;;22.00;99.90;;;;;;5032822;28;20204;-79